Rodney, Michigan
Current Conditions -  °F | °C
As of 7:35 AM on Sunday 23 Nov 2014 (Local Time) from KRQB Reporting Station
Haze Haze  
Wind Chill: 44°   Ceiling: 700
Heat Index: 44°   Visibility: 5mi
Dew Point: 44°   Wind: 3mph
Humidity: 100%   Direction: 150°SSE
Pressure: 29.78"   Gusts: NA
Location:  43.67°N, 85.33°W
Report Text: KRQB 231235Z AUTO 15003KT 5SM BR OVC007 07/07 A2978 RMK AO2 T00680068
Loading
Personal Weather Stations






























Interactive Weather Map New forecast layout! Learn more

10-Day Weather Forecast

Advertisements
Track Severe Weather on mobile